KAUG/AUG METAR and TAF weather

Enter ICAO airport designator
Station Type Date Time Source
KAUG METAR 2018/12/10 23:53 UTC NOAA

KAUG 102353Z AUTO 36005KT 10SM CLR M08/M15 A3015 RMK AO2 SLP219 T10831150 11039 21083 53014


Station Type Date Time Source
KAUG Decoded METAR 2018/12/10 23:53 UTC NOAA

AUGUSTA STATE AIRPORT, ME, United States (KAUG) 44-19N 069-48W 109M
Dec 10, 2018 - 06:53 PM EST / 2018.12.10 2353 UTC
Wind: from the N (360 degrees) at 6 MPH (5 KT):0
Visibility: 10 mile(s):0
Sky conditions: clear
Temperature: 17.1 F (-8.3 C)
Windchill: 8 F (-13 C):1
Dew Point: 5.0 F (-15.0 C)
Relative Humidity: 58%
Pressure (altimeter): 30.15 in. Hg (1020 hPa)
Pressure tendency: 0.04 inches (1.4 hPa) higher than three hours ago
ob: KAUG 102353Z AUTO 36005KT 10SM CLR M08/M15 A3015 RMK AO2 SLP219 T10831150 11039 21083 53014
cycle: 0

Station Type Date Time Source
KAUG TAF 2018/12/10 20:59 UTC NOAA

TAF
AMD KAUG 101959Z 1020/1118 33007KT P6SM SKC
FM110000 34004KT P6SM SKC
FM111200 00000KT P6SM BKN250


Example: see airport list